Hauptseite
METAR-TAF:

METAR-TAF

Flughäfen :

Flughafen Chengdu-Shuangliu

Chengdu, China

Breite: 30-40N, Länge: 104-01E, Höhe: 508 m

Beobachtung

Neuester Wetterbericht von vor 46 Minuten, um 07:00 UTC
Wind 2 kt aus unterschiedlichen Richtungen
Temperatur 26°C
Luftfeuchtigkeit 79%
Luftdruck 1010 hPa
Sichtweite: 8000 m
Aufgelockert bewölkt in der Höhe von 2000 ft
Durchbrochene Bewölkung in der Höhe von 3300 ft

METAR: ZUUU 190700Z VRB01MPS 8000 SCT020 BKN033 26/22 Q1010 NOSIG

Zeit: 15:46 (07:46 UTC)

Prognose

Neuester Wetterbericht von vor 5 Stunden und 37 Minuten, um 02:09 UTC
Gültige Prognose vom 19 um 06 UTC bis 20 um 06 UTC
Wind 6 kt aus Nord/Nordost
Sichtweite: 5000 m
Aufgelockert bewölkt in der Höhe von 4000 ft
feuchter Dunst
Zeitweise
vom 19 um 14 UTC bis 19 um 20 UTC
Regenschauer

TAF: ZUUU 190209Z 1906/2006 02003MPS 5000 BR SCT040 TX26/1907Z TN20/1923Z TEMPO 1914/1920 -SHRA

Wetterbeobachtungen und Prognosen von mehr als 4000 Flughäfen (METAR und TAF Bericht).

Die verfügbaren Stationen werden durch gelbe und rote Markierungen auf der Karte dargestellt.

Führen Sie die Maus auf sie, um den Namen der Station zu sehen.

Darauf klicken, um die Beobachtung von Wetterbeobachtungen und Prognosen zu sehen.

Um die Karte zu ändern : klicken Sie auf den grünen Tasten mit einem schwarzen Kreuz Zum Vergrößern, auf den grünen Button mit einem Gedankenstrich zu verkleinern, oder auf die grünen Pfeile für benachbarte Karten.


METAR-TAF: